sensor_id;sensor_type;location;lat;lon;timestamp;P1;durP1;ratioP1;P2;durP2;ratioP2
58898;SDS011;44680;48.342;7.856;2022-07-29T00:00:08;5.85;;;4.63;;
58898;SDS011;44680;48.342;7.856;2022-07-29T00:02:34;6.13;;;5.05;;
58898;SDS011;44680;48.342;7.856;2022-07-29T00:04:59;5.40;;;4.45;;
58898;SDS011;44680;48.342;7.856;2022-07-29T00:07:25;6.68;;;5.10;;
58898;SDS011;44680;48.342;7.856;2022-07-29T00:09:50;7.93;;;4.90;;
58898;SDS011;44680;48.342;7.856;2022-07-29T00:12:15;5.97;;;5.22;;
58898;SDS011;44680;48.342;7.856;2022-07-29T00:14:41;7.85;;;4.70;;
58898;SDS011;44680;48.342;7.856;2022-07-29T00:17:06;6.70;;;4.90;;
58898;SDS011;44680;48.342;7.856;2022-07-29T00:19:31;6.00;;;4.70;;
58898;SDS011;44680;48.342;7.856;2022-07-29T00:21:57;6.30;;;4.60;;
58898;SDS011;44680;48.342;7.856;2022-07-29T00:24:22;8.05;;;5.25;;
58898;SDS011;44680;48.342;7.856;2022-07-29T00:26:47;6.68;;;4.63;;
58898;SDS011;44680;48.342;7.856;2022-07-29T00:29:13;5.40;;;4.90;;
58898;SDS011;44680;48.342;7.856;2022-07-29T00:31:38;6.30;;;5.18;;
58898;SDS011;44680;48.342;7.856;2022-07-29T00:34:04;6.70;;;4.78;;
58898;SDS011;44680;48.342;7.856;2022-07-29T00:36:31;5.78;;;4.72;;
58898;SDS011;44680;48.342;7.856;2022-07-29T00:38:56;6.15;;;5.00;;
58898;SDS011;44680;48.342;7.856;2022-07-29T00:41:21;6.90;;;4.82;;
58898;SDS011;44680;48.342;7.856;2022-07-29T00:43:47;9.18;;;5.03;;
58898;SDS011;44680;48.342;7.856;2022-07-29T00:46:12;6.50;;;5.15;;
58898;SDS011;44680;48.342;7.856;2022-07-29T00:48:37;7.95;;;5.05;;
58898;SDS011;44680;48.342;7.856;2022-07-29T00:51:03;6.50;;;4.78;;
58898;SDS011;44680;48.342;7.856;2022-07-29T00:53:30;5.78;;;5.10;;
58898;SDS011;44680;48.342;7.856;2022-07-29T00:55:56;6.82;;;5.00;;
58898;SDS011;44680;48.342;7.856;2022-07-29T00:58:23;5.80;;;5.10;;
58898;SDS011;44680;48.342;7.856;2022-07-29T01:00:48;7.20;;;4.72;;
58898;SDS011;44680;48.342;7.856;2022-07-29T01:03:14;9.48;;;5.30;;
58898;SDS011;44680;48.342;7.856;2022-07-29T01:05:40;10.27;;;5.07;;
58898;SDS011;44680;48.342;7.856;2022-07-29T01:08:06;8.95;;;5.15;;
58898;SDS011;44680;48.342;7.856;2022-07-29T01:10:31;7.25;;;5.00;;
58898;SDS011;44680;48.342;7.856;2022-07-29T01:12:57;10.75;;;5.32;;
58898;SDS011;44680;48.342;7.856;2022-07-29T01:15:24;6.55;;;5.10;;
58898;SDS011;44680;48.342;7.856;2022-07-29T01:23:58;7.25;;;4.95;;
58898;SDS011;44680;48.342;7.856;2022-07-29T01:29:56;8.07;;;5.28;;
58898;SDS011;44680;48.342;7.856;2022-07-29T01:32:05;11.10;;;5.70;;
58898;SDS011;44680;48.342;7.856;2022-07-29T01:34:35;8.48;;;5.28;;
58898;SDS011;44680;48.342;7.856;2022-07-29T01:37:15;10.27;;;5.43;;
58898;SDS011;44680;48.342;7.856;2022-07-29T01:39:44;10.23;;;5.32;;
58898;SDS011;44680;48.342;7.856;2022-07-29T01:42:15;8.50;;;5.72;;
58898;SDS011;44680;48.342;7.856;2022-07-29T01:44:52;9.50;;;5.13;;
58898;SDS011;44680;48.342;7.856;2022-07-29T01:47:23;7.72;;;5.70;;
58898;SDS011;44680;48.342;7.856;2022-07-29T01:49:53;8.02;;;5.53;;
58898;SDS011;44680;48.342;7.856;2022-07-29T01:52:22;8.48;;;5.68;;
58898;SDS011;44680;48.342;7.856;2022-07-29T01:54:53;7.13;;;5.57;;
58898;SDS011;44680;48.342;7.856;2022-07-29T01:57:25;6.38;;;5.32;;
58898;SDS011;44680;48.342;7.856;2022-07-29T01:59:52;7.97;;;5.78;;
58898;SDS011;44680;48.342;7.856;2022-07-29T02:02:19;6.75;;;5.13;;
58898;SDS011;44680;48.342;7.856;2022-07-29T02:04:45;9.73;;;5.45;;
58898;SDS011;44680;48.342;7.856;2022-07-29T02:07:13;6.97;;;5.53;;
58898;SDS011;44680;48.342;7.856;2022-07-29T02:09:47;7.55;;;5.40;;
58898;SDS011;44680;48.342;7.856;2022-07-29T02:12:13;6.80;;;5.65;;
58898;SDS011;44680;48.342;7.856;2022-07-29T02:14:44;7.45;;;5.38;;
58898;SDS011;44680;48.342;7.856;2022-07-29T02:17:12;7.18;;;5.60;;
58898;SDS011;44680;48.342;7.856;2022-07-29T02:19:38;5.90;;;5.30;;
58898;SDS011;44680;48.342;7.856;2022-07-29T02:22:04;9.07;;;5.57;;
58898;SDS011;44680;48.342;7.856;2022-07-29T02:24:30;6.10;;;5.15;;
58898;SDS011;44680;48.342;7.856;2022-07-29T02:26:56;6.75;;;5.40;;
58898;SDS011;44680;48.342;7.856;2022-07-29T02:29:23;6.97;;;5.22;;
58898;SDS011;44680;48.342;7.856;2022-07-29T02:31:50;9.20;;;5.60;;
58898;SDS011;44680;48.342;7.856;2022-07-29T02:34:16;7.93;;;5.72;;
58898;SDS011;44680;48.342;7.856;2022-07-29T02:36:42;7.43;;;5.45;;
58898;SDS011;44680;48.342;7.856;2022-07-29T02:39:08;6.70;;;5.70;;
58898;SDS011;44680;48.342;7.856;2022-07-29T02:41:43;7.95;;;5.82;;
58898;SDS011;44680;48.342;7.856;2022-07-29T02:44:28;7.53;;;5.43;;
58898;SDS011;44680;48.342;7.856;2022-07-29T02:46:59;7.32;;;5.38;;
58898;SDS011;44680;48.342;7.856;2022-07-29T02:55:06;5.90;;;5.30;;
58898;SDS011;44680;48.342;7.856;2022-07-29T02:57:44;12.20;;;6.22;;
58898;SDS011;44680;48.342;7.856;2022-07-29T03:00:13;7.35;;;5.78;;
58898;SDS011;44680;48.342;7.856;2022-07-29T03:02:40;6.95;;;5.90;;
58898;SDS011;44680;48.342;7.856;2022-07-29T03:05:10;8.38;;;5.90;;
58898;SDS011;44680;48.342;7.856;2022-07-29T03:07:42;9.95;;;5.72;;
58898;SDS011;44680;48.342;7.856;2022-07-29T03:10:11;8.77;;;6.05;;
58898;SDS011;44680;48.342;7.856;2022-07-29T03:12:36;8.35;;;5.60;;
58898;SDS011;44680;48.342;7.856;2022-07-29T03:15:02;8.13;;;5.88;;
58898;SDS011;44680;48.342;7.856;2022-07-29T03:17:28;6.93;;;6.03;;
58898;SDS011;44680;48.342;7.856;2022-07-29T03:19:54;9.45;;;5.57;;
58898;SDS011;44680;48.342;7.856;2022-07-29T03:22:20;10.85;;;6.32;;
58898;SDS011;44680;48.342;7.856;2022-07-29T03:24:45;8.23;;;5.65;;
58898;SDS011;44680;48.342;7.856;2022-07-29T03:27:11;7.15;;;5.50;;
58898;SDS011;44680;48.342;7.856;2022-07-29T03:29:36;7.40;;;5.70;;
58898;SDS011;44680;48.342;7.856;2022-07-29T03:32:02;10.20;;;5.88;;
58898;SDS011;44680;48.342;7.856;2022-07-29T03:36:54;7.20;;;5.47;;
58898;SDS011;44680;48.342;7.856;2022-07-29T03:39:21;9.23;;;6.13;;
58898;SDS011;44680;48.342;7.856;2022-07-29T03:41:47;8.55;;;5.78;;
58898;SDS011;44680;48.342;7.856;2022-07-29T03:44:15;8.93;;;5.95;;
58898;SDS011;44680;48.342;7.856;2022-07-29T03:46:41;6.57;;;5.90;;
58898;SDS011;44680;48.342;7.856;2022-07-29T03:49:08;8.68;;;5.82;;
58898;SDS011;44680;48.342;7.856;2022-07-29T03:51:34;8.15;;;5.45;;
58898;SDS011;44680;48.342;7.856;2022-07-29T03:54:03;7.60;;;6.05;;
58898;SDS011;44680;48.342;7.856;2022-07-29T03:56:29;10.40;;;5.88;;
58898;SDS011;44680;48.342;7.856;2022-07-29T03:58:54;8.10;;;5.88;;
58898;SDS011;44680;48.342;7.856;2022-07-29T04:01:20;11.40;;;5.60;;
58898;SDS011;44680;48.342;7.856;2022-07-29T04:03:46;7.93;;;6.10;;
58898;SDS011;44680;48.342;7.856;2022-07-29T04:06:11;12.02;;;6.30;;
58898;SDS011;44680;48.342;7.856;2022-07-29T04:08:37;10.48;;;6.00;;
58898;SDS011;44680;48.342;7.856;2022-07-29T04:11:02;9.90;;;6.50;;
58898;SDS011;44680;48.342;7.856;2022-07-29T04:13:28;10.43;;;6.50;;
58898;SDS011;44680;48.342;7.856;2022-07-29T04:15:53;15.63;;;6.68;;
58898;SDS011;44680;48.342;7.856;2022-07-29T04:18:19;8.23;;;6.13;;
58898;SDS011;44680;48.342;7.856;2022-07-29T04:20:44;7.32;;;6.10;;
58898;SDS011;44680;48.342;7.856;2022-07-29T04:23:10;10.38;;;6.35;;
58898;SDS011;44680;48.342;7.856;2022-07-29T04:25:39;7.70;;;6.05;;
58898;SDS011;44680;48.342;7.856;2022-07-29T04:28:05;8.23;;;5.80;;
58898;SDS011;44680;48.342;7.856;2022-07-29T04:30:31;10.15;;;6.05;;
58898;SDS011;44680;48.342;7.856;2022-07-29T04:32:58;6.70;;;6.00;;
58898;SDS011;44680;48.342;7.856;2022-07-29T04:35:23;8.25;;;5.90;;
58898;SDS011;44680;48.342;7.856;2022-07-29T04:37:49;10.68;;;6.20;;
58898;SDS011;44680;48.342;7.856;2022-07-29T04:40:14;7.85;;;5.63;;
58898;SDS011;44680;48.342;7.856;2022-07-29T04:42:39;7.05;;;6.20;;
58898;SDS011;44680;48.342;7.856;2022-07-29T04:45:05;12.35;;;6.55;;
58898;SDS011;44680;48.342;7.856;2022-07-29T04:50:07;9.95;;;6.25;;
58898;SDS011;44680;48.342;7.856;2022-07-29T04:52:33;8.80;;;6.10;;
58898;SDS011;44680;48.342;7.856;2022-07-29T04:55:05;6.88;;;6.15;;
58898;SDS011;44680;48.342;7.856;2022-07-29T04:57:34;7.53;;;6.07;;
58898;SDS011;44680;48.342;7.856;2022-07-29T05:00:00;10.32;;;6.57;;
58898;SDS011;44680;48.342;7.856;2022-07-29T05:02:25;8.07;;;6.40;;
58898;SDS011;44680;48.342;7.856;2022-07-29T05:04:51;8.95;;;6.47;;
58898;SDS011;44680;48.342;7.856;2022-07-29T05:07:16;11.15;;;6.45;;
58898;SDS011;44680;48.342;7.856;2022-07-29T05:09:41;13.43;;;6.25;;
58898;SDS011;44680;48.342;7.856;2022-07-29T05:12:07;10.10;;;6.38;;
58898;SDS011;44680;48.342;7.856;2022-07-29T05:14:32;9.82;;;6.30;;
58898;SDS011;44680;48.342;7.856;2022-07-29T05:16:58;9.77;;;6.30;;
58898;SDS011;44680;48.342;7.856;2022-07-29T05:19:23;9.15;;;6.20;;
58898;SDS011;44680;48.342;7.856;2022-07-29T05:21:48;10.55;;;6.55;;
58898;SDS011;44680;48.342;7.856;2022-07-29T05:24:14;9.20;;;6.30;;
58898;SDS011;44680;48.342;7.856;2022-07-29T05:26:39;13.00;;;7.10;;
58898;SDS011;44680;48.342;7.856;2022-07-29T05:29:05;11.82;;;6.72;;
58898;SDS011;44680;48.342;7.856;2022-07-29T05:31:30;10.85;;;6.70;;
58898;SDS011;44680;48.342;7.856;2022-07-29T05:33:55;8.65;;;6.30;;
58898;SDS011;44680;48.342;7.856;2022-07-29T05:36:21;17.70;;;6.80;;
58898;SDS011;44680;48.342;7.856;2022-07-29T05:38:46;9.40;;;6.22;;
58898;SDS011;44680;48.342;7.856;2022-07-29T05:41:11;9.07;;;6.32;;
58898;SDS011;44680;48.342;7.856;2022-07-29T05:43:37;10.43;;;6.68;;
58898;SDS011;44680;48.342;7.856;2022-07-29T05:46:02;8.00;;;6.40;;
58898;SDS011;44680;48.342;7.856;2022-07-29T05:48:27;11.77;;;6.43;;
58898;SDS011;44680;48.342;7.856;2022-07-29T05:50:53;8.80;;;6.13;;
58898;SDS011;44680;48.342;7.856;2022-07-29T05:53:18;10.98;;;6.72;;
58898;SDS011;44680;48.342;7.856;2022-07-29T05:55:44;8.65;;;6.05;;
58898;SDS011;44680;48.342;7.856;2022-07-29T05:58:09;9.95;;;6.10;;
58898;SDS011;44680;48.342;7.856;2022-07-29T06:00:34;8.82;;;6.20;;
58898;SDS011;44680;48.342;7.856;2022-07-29T06:02:59;10.88;;;6.30;;
58898;SDS011;44680;48.342;7.856;2022-07-29T06:05:25;7.25;;;5.65;;
58898;SDS011;44680;48.342;7.856;2022-07-29T06:07:50;8.63;;;6.05;;
58898;SDS011;44680;48.342;7.856;2022-07-29T06:10:15;7.13;;;5.75;;
58898;SDS011;44680;48.342;7.856;2022-07-29T06:12:41;9.25;;;5.80;;
58898;SDS011;44680;48.342;7.856;2022-07-29T06:15:06;9.85;;;6.22;;
58898;SDS011;44680;48.342;7.856;2022-07-29T06:17:32;10.32;;;5.60;;
58898;SDS011;44680;48.342;7.856;2022-07-29T06:19:57;12.68;;;6.07;;
58898;SDS011;44680;48.342;7.856;2022-07-29T06:22:22;8.20;;;5.80;;
58898;SDS011;44680;48.342;7.856;2022-07-29T06:24:48;10.73;;;6.35;;
58898;SDS011;44680;48.342;7.856;2022-07-29T06:27:13;6.65;;;5.63;;
58898;SDS011;44680;48.342;7.856;2022-07-29T06:29:39;8.45;;;5.53;;
58898;SDS011;44680;48.342;7.856;2022-07-29T06:32:04;10.35;;;5.43;;
58898;SDS011;44680;48.342;7.856;2022-07-29T06:34:30;8.70;;;5.10;;
58898;SDS011;44680;48.342;7.856;2022-07-29T06:36:55;6.20;;;4.75;;
58898;SDS011;44680;48.342;7.856;2022-07-29T06:39:20;6.80;;;4.95;;
58898;SDS011;44680;48.342;7.856;2022-07-29T06:41:46;5.55;;;5.05;;
58898;SDS011;44680;48.342;7.856;2022-07-29T06:44:13;7.38;;;4.97;;
58898;SDS011;44680;48.342;7.856;2022-07-29T06:46:39;9.77;;;5.40;;
58898;SDS011;44680;48.342;7.856;2022-07-29T06:49:04;10.65;;;5.50;;
58898;SDS011;44680;48.342;7.856;2022-07-29T06:51:30;9.77;;;5.93;;
58898;SDS011;44680;48.342;7.856;2022-07-29T06:53:55;11.13;;;5.55;;
58898;SDS011;44680;48.342;7.856;2022-07-29T06:56:22;14.85;;;6.25;;
58898;SDS011;44680;48.342;7.856;2022-07-29T06:58:47;9.65;;;5.20;;
58898;SDS011;44680;48.342;7.856;2022-07-29T07:01:13;11.10;;;4.45;;
58898;SDS011;44680;48.342;7.856;2022-07-29T07:03:38;5.40;;;3.90;;
58898;SDS011;44680;48.342;7.856;2022-07-29T07:06:03;9.48;;;4.55;;
58898;SDS011;44680;48.342;7.856;2022-07-29T07:08:29;8.02;;;4.15;;
58898;SDS011;44680;48.342;7.856;2022-07-29T07:10:54;10.20;;;4.15;;
58898;SDS011;44680;48.342;7.856;2022-07-29T07:13:20;15.35;;;4.78;;
58898;SDS011;44680;48.342;7.856;2022-07-29T07:15:45;9.13;;;4.47;;
58898;SDS011;44680;48.342;7.856;2022-07-29T07:18:13;8.98;;;4.30;;
58898;SDS011;44680;48.342;7.856;2022-07-29T07:20:39;10.20;;;3.97;;
58898;SDS011;44680;48.342;7.856;2022-07-29T07:23:04;7.28;;;4.15;;
58898;SDS011;44680;48.342;7.856;2022-07-29T07:25:30;12.20;;;4.25;;
58898;SDS011;44680;48.342;7.856;2022-07-29T07:27:55;12.00;;;4.43;;
58898;SDS011;44680;48.342;7.856;2022-07-29T07:30:21;9.45;;;4.15;;
58898;SDS011;44680;48.342;7.856;2022-07-29T07:32:46;10.25;;;4.30;;
58898;SDS011;44680;48.342;7.856;2022-07-29T07:35:12;9.68;;;4.30;;
58898;SDS011;44680;48.342;7.856;2022-07-29T07:37:38;14.90;;;4.70;;
58898;SDS011;44680;48.342;7.856;2022-07-29T07:40:05;9.55;;;4.72;;
58898;SDS011;44680;48.342;7.856;2022-07-29T07:42:31;7.00;;;4.70;;
58898;SDS011;44680;48.342;7.856;2022-07-29T07:44:56;10.80;;;4.55;;
58898;SDS011;44680;48.342;7.856;2022-07-29T07:47:22;9.00;;;4.55;;
58898;SDS011;44680;48.342;7.856;2022-07-29T07:49:49;12.35;;;4.45;;
58898;SDS011;44680;48.342;7.856;2022-07-29T07:52:18;9.93;;;4.55;;
58898;SDS011;44680;48.342;7.856;2022-07-29T07:54:45;6.60;;;4.53;;
58898;SDS011;44680;48.342;7.856;2022-07-29T07:57:11;8.02;;;4.60;;
58898;SDS011;44680;48.342;7.856;2022-07-29T07:59:37;13.70;;;4.65;;
58898;SDS011;44680;48.342;7.856;2022-07-29T08:02:03;9.30;;;4.70;;
58898;SDS011;44680;48.342;7.856;2022-07-29T08:04:28;8.95;;;4.15;;
58898;SDS011;44680;48.342;7.856;2022-07-29T08:06:53;16.13;;;4.75;;
58898;SDS011;44680;48.342;7.856;2022-07-29T08:09:22;11.50;;;4.97;;
58898;SDS011;44680;48.342;7.856;2022-07-29T08:11:48;12.85;;;4.10;;
58898;SDS011;44680;48.342;7.856;2022-07-29T08:14:13;9.10;;;4.60;;
58898;SDS011;44680;48.342;7.856;2022-07-29T08:16:39;5.15;;;4.13;;
58898;SDS011;44680;48.342;7.856;2022-07-29T08:19:05;11.80;;;4.85;;
58898;SDS011;44680;48.342;7.856;2022-07-29T08:21:30;8.20;;;4.43;;
58898;SDS011;44680;48.342;7.856;2022-07-29T08:23:56;7.80;;;4.43;;
58898;SDS011;44680;48.342;7.856;2022-07-29T08:26:41;10.27;;;4.53;;
58898;SDS011;44680;48.342;7.856;2022-07-29T08:29:07;10.02;;;4.32;;
58898;SDS011;44680;48.342;7.856;2022-07-29T08:31:33;7.72;;;4.03;;
58898;SDS011;44680;48.342;7.856;2022-07-29T08:33:58;7.35;;;4.20;;
58898;SDS011;44680;48.342;7.856;2022-07-29T08:36:24;6.53;;;4.75;;
58898;SDS011;44680;48.342;7.856;2022-07-29T08:38:50;8.43;;;4.22;;
58898;SDS011;44680;48.342;7.856;2022-07-29T08:41:15;11.15;;;4.85;;
58898;SDS011;44680;48.342;7.856;2022-07-29T08:43:43;8.30;;;4.28;;
58898;SDS011;44680;48.342;7.856;2022-07-29T08:46:09;6.68;;;4.20;;
58898;SDS011;44680;48.342;7.856;2022-07-29T08:48:34;9.43;;;4.53;;
58898;SDS011;44680;48.342;7.856;2022-07-29T08:51:01;9.50;;;4.18;;
58898;SDS011;44680;48.342;7.856;2022-07-29T08:53:27;8.50;;;4.32;;
58898;SDS011;44680;48.342;7.856;2022-07-29T08:55:54;9.50;;;4.30;;
58898;SDS011;44680;48.342;7.856;2022-07-29T08:58:19;7.43;;;4.45;;
58898;SDS011;44680;48.342;7.856;2022-07-29T09:00:48;6.50;;;4.35;;
58898;SDS011;44680;48.342;7.856;2022-07-29T09:03:20;7.15;;;4.45;;
58898;SDS011;44680;48.342;7.856;2022-07-29T09:05:46;12.88;;;4.55;;
58898;SDS011;44680;48.342;7.856;2022-07-29T09:08:15;8.57;;;4.80;;
58898;SDS011;44680;48.342;7.856;2022-07-29T09:10:42;9.52;;;4.63;;
58898;SDS011;44680;48.342;7.856;2022-07-29T09:13:07;7.28;;;4.45;;
58898;SDS011;44680;48.342;7.856;2022-07-29T09:15:33;7.95;;;4.40;;
58898;SDS011;44680;48.342;7.856;2022-07-29T09:17:58;9.63;;;4.63;;
58898;SDS011;44680;48.342;7.856;2022-07-29T09:20:25;7.57;;;4.55;;
58898;SDS011;44680;48.342;7.856;2022-07-29T09:22:53;9.70;;;4.65;;
58898;SDS011;44680;48.342;7.856;2022-07-29T09:25:35;10.02;;;4.53;;
58898;SDS011;44680;48.342;7.856;2022-07-29T09:28:11;10.43;;;4.60;;
58898;SDS011;44680;48.342;7.856;2022-07-29T09:30:53;10.13;;;4.68;;
58898;SDS011;44680;48.342;7.856;2022-07-29T09:33:20;9.55;;;4.70;;
58898;SDS011;44680;48.342;7.856;2022-07-29T09:36:13;9.32;;;4.50;;
58898;SDS011;44680;48.342;7.856;2022-07-29T09:38:46;7.25;;;4.45;;
58898;SDS011;44680;48.342;7.856;2022-07-29T09:41:23;9.95;;;5.00;;
58898;SDS011;44680;48.342;7.856;2022-07-29T09:43:55;7.97;;;4.30;;
58898;SDS011;44680;48.342;7.856;2022-07-29T09:46:27;7.70;;;4.20;;
58898;SDS011;44680;48.342;7.856;2022-07-29T09:49:08;7.68;;;4.13;;
58898;SDS011;44680;48.342;7.856;2022-07-29T09:51:38;12.55;;;4.28;;
58898;SDS011;44680;48.342;7.856;2022-07-29T09:54:23;5.95;;;4.13;;
58898;SDS011;44680;48.342;7.856;2022-07-29T09:56:50;7.35;;;4.70;;
58898;SDS011;44680;48.342;7.856;2022-07-29T09:59:17;9.93;;;4.30;;
58898;SDS011;44680;48.342;7.856;2022-07-29T10:01:45;7.25;;;4.18;;
58898;SDS011;44680;48.342;7.856;2022-07-29T10:04:12;6.85;;;4.60;;
58898;SDS011;44680;48.342;7.856;2022-07-29T10:09:26;5.93;;;4.03;;
58898;SDS011;44680;48.342;7.856;2022-07-29T10:12:11;5.00;;;4.20;;
58898;SDS011;44680;48.342;7.856;2022-07-29T10:14:40;6.10;;;3.50;;
58898;SDS011;44680;48.342;7.856;2022-07-29T10:17:07;8.63;;;3.92;;
58898;SDS011;44680;48.342;7.856;2022-07-29T10:19:34;8.98;;;3.92;;
58898;SDS011;44680;48.342;7.856;2022-07-29T10:22:01;6.03;;;3.83;;
58898;SDS011;44680;48.342;7.856;2022-07-29T10:24:30;8.57;;;4.15;;
58898;SDS011;44680;48.342;7.856;2022-07-29T10:26:59;8.18;;;4.20;;
58898;SDS011;44680;48.342;7.856;2022-07-29T10:29:30;6.35;;;3.90;;
58898;SDS011;44680;48.342;7.856;2022-07-29T10:37:13;7.22;;;3.97;;
58898;SDS011;44680;48.342;7.856;2022-07-29T10:39:53;7.28;;;4.30;;
58898;SDS011;44680;48.342;7.856;2022-07-29T10:42:52;12.90;;;4.55;;
58898;SDS011;44680;48.342;7.856;2022-07-29T10:45:18;8.13;;;3.97;;
58898;SDS011;44680;48.342;7.856;2022-07-29T10:47:43;7.63;;;3.78;;
58898;SDS011;44680;48.342;7.856;2022-07-29T10:50:09;7.88;;;4.15;;
58898;SDS011;44680;48.342;7.856;2022-07-29T10:55:36;10.77;;;4.32;;
58898;SDS011;44680;48.342;7.856;2022-07-29T10:58:25;8.15;;;4.10;;
58898;SDS011;44680;48.342;7.856;2022-07-29T11:00:51;7.63;;;4.10;;
58898;SDS011;44680;48.342;7.856;2022-07-29T11:06:12;8.82;;;4.13;;
58898;SDS011;44680;48.342;7.856;2022-07-29T11:08:38;9.13;;;3.97;;
58898;SDS011;44680;48.342;7.856;2022-07-29T11:13:45;8.93;;;4.28;;
58898;SDS011;44680;48.342;7.856;2022-07-29T11:16:17;7.68;;;3.63;;
58898;SDS011;44680;48.342;7.856;2022-07-29T11:21:38;8.02;;;4.03;;
58898;SDS011;44680;48.342;7.856;2022-07-29T11:24:12;6.15;;;3.80;;
58898;SDS011;44680;48.342;7.856;2022-07-29T11:26:38;6.10;;;3.90;;
58898;SDS011;44680;48.342;7.856;2022-07-29T11:29:25;7.25;;;3.70;;
58898;SDS011;44680;48.342;7.856;2022-07-29T11:31:50;8.80;;;4.20;;
58898;SDS011;44680;48.342;7.856;2022-07-29T11:34:20;5.45;;;3.95;;
58898;SDS011;44680;48.342;7.856;2022-07-29T11:39:40;9.60;;;4.95;;
58898;SDS011;44680;48.342;7.856;2022-07-29T11:45:03;6.35;;;4.25;;
58898;SDS011;44680;48.342;7.856;2022-07-29T11:47:33;7.05;;;4.30;;
58898;SDS011;44680;48.342;7.856;2022-07-29T11:49:59;8.75;;;4.00;;
58898;SDS011;44680;48.342;7.856;2022-07-29T11:52:33;5.00;;;3.63;;
58898;SDS011;44680;48.342;7.856;2022-07-29T11:55:08;11.80;;;4.20;;
58898;SDS011;44680;48.342;7.856;2022-07-29T11:57:35;6.47;;;3.88;;
58898;SDS011;44680;48.342;7.856;2022-07-29T12:00:00;5.00;;;4.03;;
58898;SDS011;44680;48.342;7.856;2022-07-29T12:02:37;9.88;;;4.10;;
58898;SDS011;44680;48.342;7.856;2022-07-29T12:05:06;7.82;;;3.70;;
58898;SDS011;44680;48.342;7.856;2022-07-29T12:07:32;5.47;;;3.53;;
58898;SDS011;44680;48.342;7.856;2022-07-29T12:09:59;10.77;;;4.25;;
58898;SDS011;44680;48.342;7.856;2022-07-29T12:12:24;10.77;;;4.05;;
58898;SDS011;44680;48.342;7.856;2022-07-29T12:14:50;7.70;;;4.00;;
58898;SDS011;44680;48.342;7.856;2022-07-29T12:19:51;4.80;;;4.10;;
58898;SDS011;44680;48.342;7.856;2022-07-29T12:22:24;6.47;;;4.10;;
58898;SDS011;44680;48.342;7.856;2022-07-29T12:25:01;11.02;;;3.90;;
58898;SDS011;44680;48.342;7.856;2022-07-29T12:27:37;11.90;;;3.95;;
58898;SDS011;44680;48.342;7.856;2022-07-29T12:30:10;9.32;;;4.00;;
58898;SDS011;44680;48.342;7.856;2022-07-29T12:32:42;8.35;;;3.78;;
58898;SDS011;44680;48.342;7.856;2022-07-29T12:35:18;8.68;;;3.88;;
58898;SDS011;44680;48.342;7.856;2022-07-29T12:37:45;5.20;;;3.85;;
58898;SDS011;44680;48.342;7.856;2022-07-29T12:40:13;8.20;;;4.50;;
58898;SDS011;44680;48.342;7.856;2022-07-29T12:42:41;7.70;;;3.90;;
58898;SDS011;44680;48.342;7.856;2022-07-29T12:45:30;7.30;;;3.70;;
58898;SDS011;44680;48.342;7.856;2022-07-29T12:47:56;7.38;;;3.80;;
58898;SDS011;44680;48.342;7.856;2022-07-29T12:50:21;7.78;;;3.80;;
58898;SDS011;44680;48.342;7.856;2022-07-29T12:52:47;7.55;;;3.72;;
58898;SDS011;44680;48.342;7.856;2022-07-29T12:55:37;11.60;;;3.85;;
58898;SDS011;44680;48.342;7.856;2022-07-29T12:58:05;5.93;;;3.42;;
58898;SDS011;44680;48.342;7.856;2022-07-29T13:00:30;6.82;;;3.80;;
58898;SDS011;44680;48.342;7.856;2022-07-29T13:02:57;7.25;;;3.92;;
58898;SDS011;44680;48.342;7.856;2022-07-29T13:05:23;7.38;;;3.83;;
58898;SDS011;44680;48.342;7.856;2022-07-29T13:07:49;7.47;;;3.88;;
58898;SDS011;44680;48.342;7.856;2022-07-29T13:10:20;6.82;;;4.00;;
58898;SDS011;44680;48.342;7.856;2022-07-29T13:15:34;7.60;;;3.97;;
58898;SDS011;44680;48.342;7.856;2022-07-29T13:18:00;10.50;;;3.70;;
58898;SDS011;44680;48.342;7.856;2022-07-29T13:20:26;9.93;;;3.83;;
58898;SDS011;44680;48.342;7.856;2022-07-29T13:22:57;8.55;;;3.95;;
58898;SDS011;44680;48.342;7.856;2022-07-29T13:25:32;5.85;;;3.63;;
58898;SDS011;44680;48.342;7.856;2022-07-29T13:28:04;26.65;;;4.55;;
58898;SDS011;44680;48.342;7.856;2022-07-29T13:30:39;7.43;;;3.53;;
58898;SDS011;44680;48.342;7.856;2022-07-29T13:33:04;5.65;;;4.07;;
58898;SDS011;44680;48.342;7.856;2022-07-29T13:35:30;7.82;;;3.88;;
58898;SDS011;44680;48.342;7.856;2022-07-29T13:37:55;6.50;;;3.75;;
58898;SDS011;44680;48.342;7.856;2022-07-29T13:40:21;9.75;;;4.00;;
58898;SDS011;44680;48.342;7.856;2022-07-29T13:42:46;6.35;;;3.60;;
58898;SDS011;44680;48.342;7.856;2022-07-29T13:45:12;3.67;;;3.35;;
58898;SDS011;44680;48.342;7.856;2022-07-29T13:47:38;7.65;;;3.60;;
58898;SDS011;44680;48.342;7.856;2022-07-29T13:50:04;5.90;;;3.60;;
58898;SDS011;44680;48.342;7.856;2022-07-29T13:52:30;8.52;;;3.75;;
58898;SDS011;44680;48.342;7.856;2022-07-29T13:54:55;7.65;;;3.70;;
58898;SDS011;44680;48.342;7.856;2022-07-29T13:57:21;5.30;;;3.67;;
58898;SDS011;44680;48.342;7.856;2022-07-29T13:59:46;4.57;;;3.47;;
58898;SDS011;44680;48.342;7.856;2022-07-29T14:02:11;5.20;;;3.72;;
58898;SDS011;44680;48.342;7.856;2022-07-29T14:04:37;5.53;;;3.78;;
58898;SDS011;44680;48.342;7.856;2022-07-29T14:07:03;9.60;;;3.80;;
58898;SDS011;44680;48.342;7.856;2022-07-29T14:09:29;8.88;;;3.95;;
58898;SDS011;44680;48.342;7.856;2022-07-29T14:11:55;7.03;;;3.83;;
58898;SDS011;44680;48.342;7.856;2022-07-29T14:14:20;8.68;;;4.05;;
58898;SDS011;44680;48.342;7.856;2022-07-29T14:16:46;7.30;;;3.97;;
58898;SDS011;44680;48.342;7.856;2022-07-29T14:19:13;4.07;;;3.70;;
58898;SDS011;44680;48.342;7.856;2022-07-29T14:21:39;8.98;;;4.13;;
58898;SDS011;44680;48.342;7.856;2022-07-29T14:24:04;6.20;;;4.30;;
58898;SDS011;44680;48.342;7.856;2022-07-29T14:26:31;9.73;;;3.90;;
58898;SDS011;44680;48.342;7.856;2022-07-29T14:28:56;7.53;;;3.63;;
58898;SDS011;44680;48.342;7.856;2022-07-29T14:31:22;8.02;;;4.07;;
58898;SDS011;44680;48.342;7.856;2022-07-29T14:33:47;5.20;;;3.90;;
58898;SDS011;44680;48.342;7.856;2022-07-29T14:36:13;8.80;;;4.20;;
58898;SDS011;44680;48.342;7.856;2022-07-29T14:38:39;7.38;;;4.10;;
58898;SDS011;44680;48.342;7.856;2022-07-29T14:41:05;5.68;;;3.78;;
58898;SDS011;44680;48.342;7.856;2022-07-29T14:43:31;4.93;;;3.90;;
58898;SDS011;44680;48.342;7.856;2022-07-29T14:45:56;9.77;;;3.58;;
58898;SDS011;44680;48.342;7.856;2022-07-29T14:48:22;5.20;;;3.90;;
58898;SDS011;44680;48.342;7.856;2022-07-29T14:50:47;8.43;;;3.88;;
58898;SDS011;44680;48.342;7.856;2022-07-29T14:53:12;9.63;;;3.60;;
58898;SDS011;44680;48.342;7.856;2022-07-29T14:55:40;5.65;;;3.72;;
58898;SDS011;44680;48.342;7.856;2022-07-29T14:58:07;5.45;;;3.97;;
58898;SDS011;44680;48.342;7.856;2022-07-29T15:00:32;8.88;;;4.00;;
58898;SDS011;44680;48.342;7.856;2022-07-29T15:03:01;7.20;;;3.45;;
58898;SDS011;44680;48.342;7.856;2022-07-29T15:05:27;8.05;;;3.60;;
58898;SDS011;44680;48.342;7.856;2022-07-29T15:07:52;6.65;;;3.58;;
58898;SDS011;44680;48.342;7.856;2022-07-29T15:10:18;6.00;;;3.45;;
58898;SDS011;44680;48.342;7.856;2022-07-29T15:12:44;4.90;;;3.45;;
58898;SDS011;44680;48.342;7.856;2022-07-29T15:15:09;6.05;;;3.50;;
58898;SDS011;44680;48.342;7.856;2022-07-29T15:17:35;5.13;;;3.53;;
58898;SDS011;44680;48.342;7.856;2022-07-29T15:20:00;5.75;;;3.50;;
58898;SDS011;44680;48.342;7.856;2022-07-29T15:22:26;7.07;;;3.63;;
58898;SDS011;44680;48.342;7.856;2022-07-29T15:24:51;12.40;;;3.83;;
58898;SDS011;44680;48.342;7.856;2022-07-29T15:27:16;8.10;;;3.72;;
58898;SDS011;44680;48.342;7.856;2022-07-29T15:29:44;6.50;;;3.55;;
58898;SDS011;44680;48.342;7.856;2022-07-29T15:32:12;9.93;;;3.80;;
58898;SDS011;44680;48.342;7.856;2022-07-29T15:34:39;3.88;;;3.47;;
58898;SDS011;44680;48.342;7.856;2022-07-29T15:37:07;11.80;;;3.47;;